Aérodrome :
LOGIN :

S'inscrire | Disclaimer

   EN    FR    IT 

 










Légende :    VFR   VFR Marginal   IFR   IFR Intensif   IFR Très Intensif
Visi : 
Plafond : 
>= 8 km
>= 3000ft
5 à 8 km
1000 à 3000 ft
1500m à 5 km
500 à 1000 ft
800 à 1500m
200 à 500 ft
< 800m
< 200 ft
Symboles :   Orages  Brouillard  Fortes neiges  Fortes précipitations  Vent > 20 kt
SIGMETs :   Divers  Orages  Givrage  Turbulence  Onde Orograph.  Cendres Volcan.






- Altitude de l'aérodrome : 13 ft
- Code IATA : OST


EBOS - Oostend bruges Int.

DERNIER METAR :
  • 240120Z 12003KT 070V150 2400 BR BKN005 03/02 Q1025 NOSIG

METARs EXPIRÉS :
  • 240050Z 00000KT 2800 BR BKN005 03/01 Q1026 NOSIG
  • 240020Z VRB02KT 2800 BR BKN006 03/02 Q1026 NOSIG
  • 232350Z VRB02KT 3000 BR SCT006 BKN008 03/01 Q1026 BECMG 2500 BR
  • 232320Z 10005KT 3000 BR BKN006 03/02 Q1026 BECMG 2500 BR
  • 232250Z 10005KT 060V130 3300 BR BKN007 03/02 Q1026 BECMG 2500 BR

TAF TAF EBOS
Valide du 24 à 00h jusqu'au 25 à 06h UTC


232300Z 2400/2506 15004KT 3500 BR SCT004 BKN007
TEMPO 2400/2410 2000 -DZ BR BKN003
PROB40
TEMPO 2402/2409 0500 FG BKN001
BECMG 2410/2413 6000 NSW SCT007 BKN012
BECMG 2421/2423 SCT012 BKN020
TEMPO 2500/2506 3500 BR
PROB30
TEMPO 2504/2506 0700 BCFG



MET'MAP, la Météo Aéronautique d'un coup d'oeil ! - Copyright ORBIFLY Décembre 2007 - Disclaimer

ORBIFLY MET'MAP TEAM :

Programmation & Développement : Alexandra Zaïnal
Sur une idée originale de : Baudouin d'Aumeries
Assistance à la programmation : Marc-Olivier Méhu
Soutien technique & logistique : Manuel Goepfert

Contact : metmap@orbifly.com




SOURCES & CREDITS :

   NOAA